createdAt,value
2016-03-30T00:00:36.685Z,80.57
2016-03-30T00:01:36.579Z,80.76
2016-03-30T00:02:35.925Z,80.48
2016-03-30T00:03:35.928Z,80.53
2016-03-30T00:04:35.900Z,80.76
2016-03-30T00:05:35.886Z,80.25
2016-03-30T00:06:35.889Z,80.15
2016-03-30T00:07:35.876Z,80.44
2016-03-30T00:08:35.864Z,80.44
2016-03-30T00:09:35.866Z,80.82
2016-03-30T00:10:35.853Z,80.82
2016-03-30T00:11:35.840Z,81.05
2016-03-30T00:12:35.828Z,81.1
2016-03-30T00:13:35.830Z,80.63
2016-03-30T00:14:35.863Z,80.72
2016-03-30T00:15:35.820Z,80.53
2016-03-30T00:16:35.791Z,80.82
2016-03-30T00:17:35.778Z,80.72
2016-03-30T00:18:35.797Z,80.53
2016-03-30T00:19:35.769Z,80.53
2016-03-30T00:20:35.771Z,81.01
2016-03-30T00:21:35.757Z,81.1
2016-03-30T00:22:35.745Z,81.2
2016-03-30T00:23:35.763Z,81.67
2016-03-30T00:24:35.750Z,81.38
2016-03-30T00:25:35.737Z,81.29
2016-03-30T00:26:35.740Z,81.29
2016-03-30T00:27:35.712Z,81.48
2016-03-30T00:28:35.698Z,81.48
2016-03-30T00:29:35.701Z,81.2
2016-03-30T00:30:35.688Z,81.48
2016-03-30T00:31:35.675Z,81.2
2016-03-30T00:32:35.662Z,81.01
2016-03-30T00:33:35.648Z,81.2
2016-03-30T00:34:35.651Z,80.91
2016-03-30T00:35:35.639Z,81.2
2016-03-30T00:36:35.625Z,81.1
2016-03-30T00:37:35.629Z,81.29
2016-03-30T00:38:35.616Z,81.01
2016-03-30T00:39:35.619Z,81.57
2016-03-30T00:40:35.606Z,81.67
2016-03-30T00:41:35.592Z,81.67
2016-03-30T00:42:35.564Z,81.86
2016-03-30T00:43:35.566Z,81.38
2016-03-30T00:44:35.570Z,81.48
2016-03-30T00:45:35.556Z,81.67
2016-03-30T00:46:35.528Z,81.67
2016-03-30T00:47:35.546Z,82.05
2016-03-30T00:48:35.533Z,82.14
2016-03-30T00:49:35.521Z,81.95
2016-03-30T00:50:35.508Z,81.95
2016-03-30T00:51:35.495Z,82.05
2016-03-30T00:52:35.482Z,82.24
2016-03-30T00:53:35.484Z,81.95
2016-03-30T00:54:35.471Z,82.14
2016-03-30T00:55:35.458Z,82.05
2016-03-30T00:56:35.446Z,82.05
2016-03-30T00:57:35.448Z,82.43
2016-03-30T00:58:35.435Z,82.14
2016-03-30T00:59:35.438Z,82.33
2016-03-30T01:00:35.425Z,82.29
2016-03-30T01:01:35.413Z,82.33
2016-03-30T01:02:35.571Z,82.52
2016-03-30T01:03:35.699Z,82.14
2016-03-30T01:04:49.717Z,82.33
2016-03-30T01:05:35.376Z,81.92
2016-03-30T01:06:36.329Z,82.24
2016-03-30T01:07:36.618Z,82.2
2016-03-30T01:08:36.438Z,81.92
2016-03-30T01:09:35.305Z,81.92
2016-03-30T01:10:35.282Z,82.05
2016-03-30T01:11:36.666Z,81.92
2016-03-30T01:12:36.367Z,82.2
2016-03-30T01:13:35.240Z,82.05
2016-03-30T01:15:49.409Z,82.2
2016-03-30T01:17:35.831Z,82.52
2016-03-30T01:18:35.316Z,82.86
2016-03-30T01:19:35.178Z,82.95
2016-03-30T01:20:35.507Z,82.95
2016-03-30T01:21:35.149Z,82.76
2016-03-30T01:22:35.136Z,82.67
2016-03-30T01:23:35.122Z,82.95
2016-03-30T01:24:35.109Z,82.86
2016-03-30T01:25:35.111Z,82.86
2016-03-30T01:26:35.114Z,82.95
2016-03-30T01:27:35.085Z,82.76
2016-03-30T01:28:35.072Z,83.24
2016-03-30T01:29:35.090Z,83.24
2016-03-30T01:30:35.062Z,82.86
2016-03-30T01:31:35.049Z,82.86
2016-03-30T01:32:35.052Z,83.43
2016-03-30T01:33:35.023Z,83.24
2016-03-30T01:34:35.026Z,83.24
2016-03-30T01:35:35.013Z,82.86
2016-03-30T01:36:34.999Z,83.43
2016-03-30T01:37:35.002Z,83.24
2016-03-30T01:38:34.989Z,82.95
2016-03-30T01:39:34.977Z,83.24
2016-03-30T01:40:34.964Z,83.05
2016-03-30T01:41:34.951Z,82.86
2016-03-30T01:42:34.954Z,83.24
2016-03-30T01:43:34.940Z,82.95
2016-03-30T01:44:34.960Z,83.43
2016-03-30T01:45:34.915Z,83.33
2016-03-30T01:46:34.902Z,83.52
2016-03-30T01:47:34.904Z,82.86
2016-03-30T01:48:34.892Z,83.14
2016-03-30T01:49:34.894Z,83.24
2016-03-30T01:50:34.866Z,83.43
2016-03-30T01:51:34.869Z,83.52
2016-03-30T01:52:34.856Z,83.62
2016-03-30T01:53:34.858Z,83.81
2016-03-30T01:54:34.829Z,83.43
2016-03-30T01:55:34.832Z,83.52
2016-03-30T01:56:34.835Z,83.52
2016-03-30T01:57:34.823Z,83.33
2016-03-30T01:58:34.793Z,83.33
2016-03-30T01:59:34.795Z,83.33
2016-03-30T02:00:34.767Z,83.37
2016-03-30T02:01:34.770Z,83.14
2016-03-30T02:02:34.601Z,83.33
2016-03-30T02:03:34.760Z,83.43
2016-03-30T02:04:34.731Z,83.52
2016-03-30T02:05:34.734Z,83.56
2016-03-30T02:06:34.736Z,83.37
2016-03-30T02:07:34.724Z,83.18
2016-03-30T02:08:34.711Z,83.37
2016-03-30T02:09:34.698Z,83.37
2016-03-30T02:10:34.685Z,83.56
2016-03-30T02:11:34.688Z,83.47
2016-03-30T02:12:34.674Z,83.37
2016-03-30T02:13:34.663Z,83.37
2016-03-30T02:14:34.665Z,83.47
2016-03-30T02:15:34.635Z,83.85
2016-03-30T02:16:34.624Z,83.56
2016-03-30T02:17:34.626Z,83.56
2016-03-30T02:18:34.613Z,83.85
2016-03-30T02:19:34.616Z,83.85
2016-03-30T02:20:34.585Z,83.75
2016-03-30T02:21:48.777Z,83.75
2016-03-30T02:22:34.574Z,83.37
2016-03-30T02:23:34.577Z,83.56
2016-03-30T02:24:35.282Z,83.37
2016-03-30T02:26:34.538Z,83.18
2016-03-30T02:27:34.526Z,83.56
2016-03-30T02:28:35.215Z,83.56
2016-03-30T02:29:34.499Z,83.56
2016-03-30T02:30:34.518Z,83.66
2016-03-30T02:31:34.490Z,83.66
2016-03-30T02:32:49.120Z,83.37
2016-03-30T02:33:34.479Z,83.85
2016-03-30T02:34:34.919Z,83.37
2016-03-30T02:35:34.469Z,83.47
2016-03-30T02:36:35.675Z,83.37
2016-03-30T02:37:34.537Z,83.47
2016-03-30T02:38:34.430Z,83.56
2016-03-30T02:39:34.433Z,83.47
2016-03-30T02:40:34.419Z,83.37
2016-03-30T02:41:34.563Z,83.28
2016-03-30T02:42:34.394Z,83.18
2016-03-30T02:43:34.381Z,83.47
2016-03-30T02:44:34.383Z,83.47
2016-03-30T02:45:34.371Z,83.47
2016-03-30T02:46:34.358Z,83.47
2016-03-30T02:47:34.360Z,83.28
2016-03-30T02:48:34.347Z,83.18
2016-03-30T02:49:34.334Z,83.28
2016-03-30T02:50:34.322Z,83.37
2016-03-30T02:51:34.324Z,82.94
2016-03-30T02:52:34.311Z,83.13
2016-03-30T02:53:34.314Z,83.32
2016-03-30T02:54:34.301Z,83.23
2016-03-30T02:55:34.288Z,82.85
2016-03-30T02:56:34.276Z,83.04
2016-03-30T02:57:34.278Z,83.13
2016-03-30T02:58:34.266Z,82.66
2016-03-30T02:59:34.252Z,82.85
2016-03-30T03:00:34.223Z,83.04
2016-03-30T03:01:34.226Z,82.85
2016-03-30T03:02:34.229Z,83.13
2016-03-30T03:03:34.200Z,82.94
2016-03-30T03:04:34.187Z,82.85
2016-03-30T03:05:34.190Z,82.56
2016-03-30T03:06:34.178Z,82.56
2016-03-30T03:07:34.180Z,82.66
2016-03-30T03:08:34.167Z,82.47
2016-03-30T03:09:34.154Z,82.37
2016-03-30T03:10:34.156Z,81.99
2016-03-30T03:11:34.144Z,81.99
2016-03-30T03:12:34.147Z,81.99
2016-03-30T03:13:34.133Z,81.9
2016-03-30T03:14:34.120Z,82.47
2016-03-30T03:15:34.108Z,82.09
2016-03-30T03:16:34.095Z,82.09
2016-03-30T03:17:34.098Z,82.18
2016-03-30T03:18:34.086Z,82.28
2016-03-30T03:19:34.071Z,82.66
2016-03-30T03:20:34.091Z,82.09
2016-03-30T03:21:34.047Z,82.09
2016-03-30T03:22:34.049Z,82.28
2016-03-30T03:23:34.036Z,82.18
2016-03-30T03:24:34.039Z,82.28
2016-03-30T03:25:34.025Z,82.09
2016-03-30T03:26:34.028Z,81.9
2016-03-30T03:27:34.000Z,82.09
2016-03-30T03:28:34.002Z,81.71
2016-03-30T03:29:33.990Z,81.9
2016-03-30T03:30:33.993Z,81.71
2016-03-30T03:31:33.979Z,81.81
2016-03-30T03:32:33.965Z,81.9
2016-03-30T03:33:33.953Z,81.9
2016-03-30T03:34:33.956Z,81.71
2016-03-30T03:35:33.943Z,81.24
2016-03-30T03:36:33.945Z,81.9
2016-03-30T03:37:33.918Z,81.05
2016-03-30T03:38:33.920Z,81.18
2016-03-30T03:39:33.907Z,81.27
2016-03-30T03:40:33.895Z,81.24
2016-03-30T03:41:33.943Z,81.27
2016-03-30T03:42:33.884Z,81.09
2016-03-30T03:43:35.433Z,81.56
2016-03-30T03:44:33.873Z,81.37
2016-03-30T03:45:34.189Z,81.75
2016-03-30T03:46:33.988Z,81.09
2016-03-30T03:47:33.835Z,80.8
2016-03-30T03:48:33.994Z,80.62
2016-03-30T03:49:35.137Z,80.71
2016-03-30T03:50:34.047Z,80.99
2016-03-30T03:52:33.802Z,80.71
2016-03-30T03:53:35.257Z,80.99
2016-03-30T03:54:34.775Z,80.9
2016-03-30T03:55:33.763Z,80.71
2016-03-30T03:56:34.155Z,80.62
2016-03-30T03:57:34.111Z,80.52
2016-03-30T03:58:33.957Z,80.62
2016-03-30T03:59:33.741Z,80.8
2016-03-30T04:00:33.744Z,80.9
2016-03-30T04:01:33.732Z,80.71
2016-03-30T04:02:33.718Z,80.33
2016-03-30T04:03:33.706Z,80.33
2016-03-30T04:04:33.709Z,80.52
2016-03-30T04:05:33.711Z,80.62
2016-03-30T04:06:33.714Z,80.33
2016-03-30T04:07:33.670Z,80.52
2016-03-30T04:08:33.673Z,80.62
2016-03-30T04:09:33.659Z,80.71
2016-03-30T04:10:33.662Z,80.43
2016-03-30T04:11:33.649Z,80.33
2016-03-30T04:12:33.651Z,80.04
2016-03-30T04:13:33.623Z,80.24
2016-03-30T04:14:33.625Z,80.24
2016-03-30T04:15:33.613Z,80.14
2016-03-30T04:16:33.600Z,80.33
2016-03-30T04:17:33.586Z,80.24
2016-03-30T04:18:33.590Z,80.24
2016-03-30T04:19:33.577Z,79.85
2016-03-30T04:20:33.580Z,80.43
2016-03-30T04:21:33.551Z,80.43
2016-03-30T04:22:33.554Z,79.85
2016-03-30T04:23:33.556Z,79.95
2016-03-30T04:24:33.544Z,79.66
2016-03-30T04:25:33.530Z,79.38
2016-03-30T04:26:33.533Z,79.38
2016-03-30T04:27:33.521Z,79.38
2016-03-30T04:28:33.524Z,79.76
2016-03-30T04:29:33.495Z,79.95
2016-03-30T04:30:33.513Z,79.8
2016-03-30T04:31:33.485Z,79.95
2016-03-30T04:32:33.488Z,79.52
2016-03-30T04:33:33.474Z,80.18
2016-03-30T04:34:33.461Z,79.71
2016-03-30T04:35:33.479Z,79.61
2016-03-30T04:36:33.451Z,79.33
2016-03-30T04:37:33.438Z,79.52
2016-03-30T04:38:33.440Z,79.14
2016-03-30T04:39:33.443Z,79.33
2016-03-30T04:40:33.430Z,79.33
2016-03-30T04:41:33.417Z,79.23
2016-03-30T04:42:33.389Z,79.61
2016-03-30T04:43:33.438Z,79.52
2016-03-30T04:44:33.379Z,79.52
2016-03-30T04:45:33.397Z,79.8
2016-03-30T04:46:33.368Z,79.52
2016-03-30T04:47:33.371Z,79.42
2016-03-30T04:48:33.374Z,79.42
2016-03-30T04:49:33.345Z,79.33
2016-03-30T04:50:33.348Z,79.33
2016-03-30T04:51:33.350Z,79.42
2016-03-30T04:52:33.338Z,78.85
2016-03-30T04:53:33.309Z,78.85
2016-03-30T04:54:33.311Z,79.14
2016-03-30T04:55:33.314Z,79.14
2016-03-30T04:56:33.301Z,79.33
2016-03-30T04:57:33.288Z,79.23
2016-03-30T04:58:33.275Z,79.14
2016-03-30T04:59:34.121Z,78.95
2016-03-30T05:00:34.328Z,79.04
2016-03-30T05:01:33.658Z,79.14
2016-03-30T05:02:35.240Z,79.23
2016-03-30T05:03:33.711Z,79.04
2016-03-30T05:04:34.135Z,79.04
2016-03-30T05:05:33.888Z,79.14
2016-03-30T05:06:33.343Z,79.33
2016-03-30T05:07:33.956Z,78.66
2016-03-30T05:08:47.724Z,78.66
2016-03-30T05:10:33.308Z,78.09
2016-03-30T05:11:33.826Z,78.19
2016-03-30T05:12:36.079Z,78.66
2016-03-30T05:13:35.082Z,78.38
2016-03-30T05:14:34.116Z,78.51
2016-03-30T05:15:34.259Z,78.38
2016-03-30T05:16:33.153Z,78.89
2016-03-30T05:17:33.139Z,78.51
2016-03-30T05:18:33.142Z,78.61
2016-03-30T05:19:33.128Z,78.51
2016-03-30T05:20:33.131Z,78.13
2016-03-30T05:21:33.103Z,77.84
2016-03-30T05:22:33.121Z,78.03
2016-03-30T05:23:33.092Z,77.84
2016-03-30T05:24:33.095Z,78.13
2016-03-30T05:25:33.083Z,78.03
2016-03-30T05:26:33.070Z,77.66
2016-03-30T05:27:33.072Z,77.84
2016-03-30T05:28:33.060Z,77.66
2016-03-30T05:29:33.063Z,78.03
2016-03-30T05:30:33.049Z,77.84
2016-03-30T05:31:33.036Z,77.84
2016-03-30T05:32:33.038Z,77.66
2016-03-30T05:33:33.026Z,77.84
2016-03-30T05:34:33.029Z,77.84
2016-03-30T05:35:33.015Z,77.84
2016-03-30T05:36:33.034Z,78.13
2016-03-30T05:37:32.989Z,78.13
2016-03-30T05:38:33.007Z,77.75
2016-03-30T05:39:32.979Z,77.75
2016-03-30T05:40:32.967Z,78.32
2016-03-30T05:41:32.970Z,77.94
2016-03-30T05:42:32.957Z,78.23
2016-03-30T05:43:32.959Z,78.27
2016-03-30T05:44:32.946Z,78.17
2016-03-30T05:45:32.965Z,78.17
2016-03-30T05:46:32.936Z,77.7
2016-03-30T05:47:32.923Z,77.7
2016-03-30T05:48:32.925Z,77.79
2016-03-30T05:49:32.912Z,77.7
2016-03-30T05:50:32.915Z,77.89
2016-03-30T05:51:32.917Z,77.41
2016-03-30T05:52:32.921Z,77.6
2016-03-30T05:53:32.892Z,77.51
2016-03-30T05:54:32.880Z,77.41
2016-03-30T05:55:32.883Z,77.6
2016-03-30T05:56:32.885Z,77.7
2016-03-30T05:57:32.872Z,77.79
2016-03-30T05:58:32.874Z,77.7
2016-03-30T05:59:32.861Z,78.08
2016-03-30T06:00:32.864Z,77.6
2016-03-30T06:01:32.836Z,77.79
2016-03-30T06:02:32.838Z,78.17
2016-03-30T06:03:32.841Z,77.7
2016-03-30T06:04:32.812Z,77.92
2016-03-30T06:05:32.815Z,78.08
2016-03-30T06:06:32.802Z,78.02
2016-03-30T06:07:32.790Z,77.79
2016-03-30T06:08:32.793Z,78.78
2016-03-30T06:09:32.779Z,78.64
2016-03-30T06:10:32.782Z,78.55
2016-03-30T06:11:32.769Z,78.64
2016-03-30T06:12:32.803Z,78.4
2016-03-30T06:13:32.759Z,78.36
2016-03-30T06:14:32.761Z,78.45
2016-03-30T06:15:32.764Z,79.31
2016-03-30T06:16:32.751Z,79.25
2016-03-30T06:17:32.737Z,79.03
2016-03-30T06:18:33.615Z,79.31
2016-03-30T06:19:32.711Z,79.6
2016-03-30T06:20:32.730Z,79.31
2016-03-30T06:21:33.530Z,79.41
2016-03-30T06:22:32.704Z,79.41
2016-03-30T06:23:33.488Z,79.12
2016-03-30T06:24:33.663Z,79.69
2016-03-30T06:25:32.869Z,79.97
2016-03-30T06:26:32.700Z,79.79
2016-03-30T06:27:32.734Z,79.97
2016-03-30T06:28:33.861Z,79.69
2016-03-30T06:29:32.661Z,79.79
2016-03-30T06:30:33.007Z,80.16
2016-03-30T06:31:46.838Z,80.45
2016-03-30T06:32:32.653Z,80.26
2016-03-30T06:33:34.093Z,80.26
2016-03-30T06:34:32.628Z,80.16
2016-03-30T06:35:32.771Z,79.88
2016-03-30T06:36:32.836Z,80.55
2016-03-30T06:37:32.621Z,80.35
2016-03-30T06:38:32.810Z,80.26
2016-03-30T06:39:32.610Z,80.07
2016-03-30T06:40:32.581Z,80.26
2016-03-30T06:41:32.599Z,80.3
2016-03-30T06:42:32.587Z,79.88
2016-03-30T06:43:32.589Z,80.16
2016-03-30T06:44:32.576Z,80.26
2016-03-30T06:45:32.594Z,80.26
2016-03-30T06:46:32.566Z,80.26
2016-03-30T06:47:32.568Z,80.35
2016-03-30T06:48:32.540Z,79.88
2016-03-30T06:49:32.528Z,80.26
2016-03-30T06:50:32.545Z,80.4
2016-03-30T06:51:32.533Z,80.11
2016-03-30T06:52:32.519Z,80.3
2016-03-30T06:53:32.506Z,80.3
2016-03-30T06:54:32.509Z,80.55
2016-03-30T06:55:32.496Z,80.16
2016-03-30T06:56:32.499Z,80.3
2016-03-30T06:57:32.517Z,80.07
2016-03-30T06:58:32.488Z,80.26
2016-03-30T06:59:32.492Z,80.16
2016-03-30T07:00:32.478Z,80.16
2016-03-30T07:01:32.497Z,80.4
2016-03-30T07:02:32.453Z,80.3
2016-03-30T07:03:32.455Z,80.16
2016-03-30T07:04:32.458Z,80.3
2016-03-30T07:05:32.446Z,80.49
2016-03-30T07:06:32.448Z,80.35
2016-03-30T07:07:32.419Z,80.45
2016-03-30T07:08:32.422Z,80.45
2016-03-30T07:09:32.425Z,80.45
2016-03-30T07:10:32.413Z,80.26
2016-03-30T07:11:32.415Z,80.26
2016-03-30T07:12:32.402Z,80.16
2016-03-30T07:13:32.405Z,80.3
2016-03-30T07:14:32.392Z,80.26
2016-03-30T07:15:32.395Z,80.55
2016-03-30T07:16:32.397Z,80.26
2016-03-30T07:17:31.650Z,80.55
2016-03-30T07:18:32.372Z,80.11
2016-03-30T07:19:32.374Z,80.3
2016-03-30T07:20:32.362Z,80.4
2016-03-30T07:21:32.364Z,80.4
2016-03-30T07:22:32.351Z,80.21
2016-03-30T07:23:32.354Z,80.3
2016-03-30T07:24:32.325Z,80.49
2016-03-30T07:25:32.328Z,80.3
2016-03-30T07:26:32.331Z,80.11
2016-03-30T07:27:32.318Z,79.83
2016-03-30T07:28:32.321Z,79.83
2016-03-30T07:29:32.323Z,79.83
2016-03-30T07:30:32.310Z,80.02
2016-03-30T07:31:32.313Z,79.83
2016-03-30T07:32:32.300Z,79.92
2016-03-30T07:33:32.303Z,80.02
2016-03-30T07:34:32.274Z,79.73
2016-03-30T07:35:32.277Z,79.96
2016-03-30T07:36:32.280Z,80.15
2016-03-30T07:37:46.454Z,80.34
2016-03-30T07:38:32.270Z,79.68
2016-03-30T07:39:32.256Z,79.2
2016-03-30T07:40:33.181Z,79.39
2016-03-30T07:41:32.246Z,79.3
2016-03-30T07:42:33.233Z,79.77
2016-03-30T07:43:33.689Z,79.49
2016-03-30T07:44:32.723Z,79.49
2016-03-30T07:45:32.226Z,79.58
2016-03-30T07:46:46.400Z,79.68
2016-03-30T07:48:32.530Z,79.58
2016-03-30T07:49:32.596Z,79.58
2016-03-30T07:50:46.396Z,79.77
2016-03-30T07:51:32.664Z,79.68
2016-03-30T07:52:32.182Z,79.77
2016-03-30T07:53:32.996Z,79.39
2016-03-30T07:54:33.093Z,79.39
2016-03-30T07:55:32.190Z,79.3
2016-03-30T07:56:32.365Z,79.68
2016-03-30T07:57:32.164Z,79.3
2016-03-30T07:58:32.167Z,79.3
2016-03-30T07:59:32.013Z,79.2
2016-03-30T08:00:32.173Z,79.11
2016-03-30T08:01:32.143Z,78.44
2016-03-30T08:02:32.146Z,78.44
2016-03-30T08:03:32.134Z,78.82
2016-03-30T08:04:32.136Z,78.57
2016-03-30T08:05:32.164Z,78.38
2016-03-30T08:06:32.151Z,78.1
2016-03-30T08:07:32.107Z,78.19
2016-03-30T08:08:33.238Z,77.91
2016-03-30T08:09:32.738Z,78.38
2016-03-30T08:10:32.087Z,78
2016-03-30T08:11:32.090Z,77.53
2016-03-30T08:12:32.078Z,76.9
2016-03-30T08:13:32.081Z,77.37
2016-03-30T08:14:32.067Z,77.19
2016-03-30T08:15:32.148Z,76.71
2016-03-30T08:16:32.056Z,76.23
2016-03-30T08:17:32.060Z,76.33
2016-03-30T08:18:32.047Z,76.42
2016-03-30T08:19:32.050Z,75.76
2016-03-30T08:20:32.036Z,76.14
2016-03-30T08:21:32.039Z,75.67
2016-03-30T08:22:32.042Z,75.6
2016-03-30T08:23:32.044Z,75.13
2016-03-30T08:24:32.064Z,75.51
2016-03-30T08:25:32.035Z,74.84
2016-03-30T08:26:32.022Z,75.04
2016-03-30T08:27:32.008Z,74.75
2016-03-30T08:28:32.011Z,74.56
2016-03-30T08:29:32.014Z,74.65
2016-03-30T08:30:32.017Z,74.37
2016-03-30T08:31:32.005Z,74.27
2016-03-30T08:32:32.008Z,74.18
2016-03-30T08:33:31.994Z,73.61
2016-03-30T08:34:32.013Z,74.08
2016-03-30T08:35:31.990Z,73.8
2016-03-30T08:36:31.992Z,73.93
2016-03-30T08:37:31.980Z,73.61
2016-03-30T08:38:31.983Z,73.22
2016-03-30T08:39:31.985Z,73.51
2016-03-30T08:40:31.972Z,73.13
2016-03-30T08:41:31.974Z,73.32
2016-03-30T08:42:31.961Z,73.22
2016-03-30T08:43:31.964Z,73.22
2016-03-30T08:44:31.974Z,73.41
2016-03-30T08:45:31.976Z,73.41
2016-03-30T08:46:31.964Z,73.17
2016-03-30T08:47:31.951Z,73.17
2016-03-30T08:48:31.954Z,73.07
2016-03-30T08:49:31.940Z,72.6
2016-03-30T08:50:31.943Z,72.69
2016-03-30T08:51:31.946Z,72.12
2016-03-30T08:52:31.949Z,72.5
2016-03-30T08:53:31.936Z,72.72
2016-03-30T08:54:31.923Z,72.34
2016-03-30T08:55:31.942Z,72.16
2016-03-30T08:58:31.980Z,71.58
2016-03-30T08:59:31.922Z,71.3
2016-03-30T09:00:33.502Z,71.48
2016-03-30T09:01:32.067Z,71.87
2016-03-30T09:02:31.913Z,71.3
2016-03-30T09:03:31.900Z,71.23
2016-03-30T09:04:32.685Z,71.62
2016-03-30T09:05:32.047Z,71.14
2016-03-30T09:06:46.096Z,70.57
2016-03-30T09:07:31.896Z,70.76
2016-03-30T09:08:32.101Z,70.47
2016-03-30T09:09:32.683Z,70.19
2016-03-30T09:10:33.669Z,70.09
2016-03-30T09:11:32.701Z,70.28
2016-03-30T09:12:32.141Z,70.19
2016-03-30T09:13:31.894Z,70.09
2016-03-30T09:14:31.881Z,69.52
2016-03-30T09:15:32.180Z,69.46
2016-03-30T09:16:31.871Z,69.37
2016-03-30T09:17:31.874Z,69.65
2016-03-30T09:18:31.860Z,69.56
2016-03-30T09:19:31.879Z,68.85
2016-03-30T09:20:31.881Z,69.27
2016-03-30T09:21:31.869Z,69.23
2016-03-30T09:22:31.856Z,69.23
2016-03-30T09:23:31.859Z,69.14
2016-03-30T09:24:31.861Z,68.66
2016-03-30T09:25:31.847Z,69.33
2016-03-30T09:26:31.866Z,69.14
2016-03-30T09:27:31.854Z,68.88
2016-03-30T09:28:31.856Z,68.32
2016-03-30T09:29:31.858Z,69.08
2016-03-30T09:30:31.861Z,68.47
2016-03-30T09:31:31.848Z,68.47
2016-03-30T09:32:31.867Z,68.38
2016-03-30T09:33:31.853Z,68.76
2016-03-30T09:34:31.841Z,68.76
2016-03-30T09:35:31.859Z,69.14
2016-03-30T09:36:31.862Z,69.14
2016-03-30T09:37:31.833Z,69.71
2016-03-30T09:38:31.836Z,69.62
2016-03-30T09:39:31.822Z,69.43
2016-03-30T09:40:31.825Z,69.43
2016-03-30T09:41:31.828Z,69.62
2016-03-30T09:42:31.831Z,69.62
2016-03-30T09:43:31.818Z,69.04
2016-03-30T09:44:31.821Z,68.85
2016-03-30T09:45:31.839Z,69.43
2016-03-30T09:46:31.826Z,69.23
2016-03-30T09:47:31.813Z,69.08
2016-03-30T09:48:31.816Z,68.79
2016-03-30T09:49:31.818Z,68.7
2016-03-30T09:50:31.806Z,68.79
2016-03-30T09:51:31.809Z,68.88
2016-03-30T09:52:31.812Z,68.12
2016-03-30T09:53:31.814Z,68.44
2016-03-30T09:54:31.817Z,68.26
2016-03-30T09:55:31.804Z,67.68
2016-03-30T09:56:31.806Z,67.58
2016-03-30T09:57:31.809Z,68.16
2016-03-30T09:58:31.828Z,67.68
2016-03-30T09:59:31.798Z,67.43
2016-03-30T10:00:31.801Z,67.05
2016-03-30T10:01:31.788Z,67.43
2016-03-30T10:02:31.807Z,67.05
2016-03-30T10:03:31.794Z,67.05
2016-03-30T10:04:31.797Z,66.95
2016-03-30T10:05:31.783Z,66.85
2016-03-30T10:06:31.786Z,67.24
2016-03-30T10:07:31.789Z,67.05
2016-03-30T10:08:31.792Z,67.05
2016-03-30T10:09:31.795Z,66.28
2016-03-30T10:10:31.797Z,66.19
2016-03-30T10:11:31.783Z,66.38
2016-03-30T10:12:31.771Z,66.76
2016-03-30T10:13:31.786Z,66.56
2016-03-30T10:14:31.764Z,66.95
2016-03-30T10:15:32.459Z,66.19
2016-03-30T10:16:32.639Z,66.76
2016-03-30T10:17:31.943Z,66.38
2016-03-30T10:19:32.030Z,66.66
2016-03-30T10:20:33.108Z,66.28
2016-03-30T10:21:32.965Z,66.19
2016-03-30T10:22:32.839Z,66.66
2016-03-30T10:23:31.698Z,66.38
2016-03-30T10:24:46.154Z,66.76
2016-03-30T10:25:32.607Z,67.05
2016-03-30T10:26:31.702Z,66.47
2016-03-30T10:27:32.359Z,67.05
2016-03-30T10:28:32.986Z,67.11
2016-03-30T10:29:32.207Z,67.21
2016-03-30T10:30:31.677Z,67.52
2016-03-30T10:31:32.257Z,67.11
2016-03-30T10:32:32.479Z,67.3
2016-03-30T10:33:31.684Z,67.77
2016-03-30T10:34:31.687Z,67.71
2016-03-30T10:35:31.674Z,68
2016-03-30T10:36:31.678Z,67.91
2016-03-30T10:37:31.680Z,67.91
2016-03-30T10:38:31.683Z,67.91
2016-03-30T10:39:31.685Z,67.71
2016-03-30T10:40:31.672Z,67.52
2016-03-30T10:41:31.658Z,67.43
2016-03-30T10:42:31.678Z,67.75
2016-03-30T10:43:31.664Z,67.52
2016-03-30T10:44:31.667Z,67.46
2016-03-30T10:45:31.670Z,67.55
2016-03-30T10:46:31.672Z,66.99
2016-03-30T10:47:31.674Z,67.08
2016-03-30T10:48:31.662Z,67.36
2016-03-30T10:49:31.665Z,66.5
2016-03-30T10:50:31.668Z,66.63
2016-03-30T10:51:31.671Z,65.87
2016-03-30T10:52:31.673Z,65.58
2016-03-30T10:53:31.660Z,65.3
2016-03-30T10:54:31.679Z,65.2
2016-03-30T10:55:31.665Z,65.11
2016-03-30T10:56:31.668Z,65.01
2016-03-30T10:57:31.655Z,64.34
2016-03-30T10:58:31.658Z,63.96
2016-03-30T10:59:31.661Z,64.25
2016-03-30T11:00:31.664Z,64.62
2016-03-30T11:01:31.666Z,63.86
2016-03-30T11:02:31.669Z,63.57
2016-03-30T11:03:31.672Z,63.48
2016-03-30T11:04:31.658Z,63.32
2016-03-30T11:05:31.662Z,63.42
2016-03-30T11:06:31.664Z,63.03
2016-03-30T11:07:31.667Z,62.74
2016-03-30T11:08:31.669Z,62.74
2016-03-30T11:09:31.656Z,62.08
2016-03-30T11:10:31.674Z,61.69
2016-03-30T11:11:31.677Z,61.31
2016-03-30T11:12:31.664Z,61.72
2016-03-30T11:13:31.667Z,61.44
2016-03-30T11:14:31.669Z,61.54
2016-03-30T11:15:31.672Z,60.86
2016-03-30T11:16:31.674Z,60.86
2016-03-30T11:17:31.678Z,60.41
2016-03-30T11:18:31.680Z,60.03
2016-03-30T11:19:31.668Z,59.84
2016-03-30T11:20:31.670Z,59.84
2016-03-30T11:21:31.657Z,59.84
2016-03-30T11:22:31.660Z,59.36
2016-03-30T11:23:31.679Z,59.65
2016-03-30T11:24:31.681Z,59.17
2016-03-30T11:25:31.668Z,58.98
2016-03-30T11:26:31.671Z,58.69
2016-03-30T11:27:31.673Z,58.79
2016-03-30T11:28:31.676Z,59.05
2016-03-30T11:29:31.679Z,58.86
2016-03-30T11:30:31.665Z,58.69
2016-03-30T11:31:31.684Z,58.86
2016-03-30T11:32:31.671Z,58.28
2016-03-30T11:33:33.034Z,58.95
2016-03-30T11:34:31.880Z,59.05
2016-03-30T11:35:31.695Z,58.66
2016-03-30T11:36:31.697Z,58.56
2016-03-30T11:37:31.684Z,58.66
2016-03-30T11:38:33.156Z,58.56
2016-03-30T11:39:31.784Z,58.66
2016-03-30T11:40:31.693Z,58.37
2016-03-30T11:41:32.492Z,58.56
2016-03-30T11:42:31.683Z,58.56
2016-03-30T11:43:32.700Z,58.37
2016-03-30T11:44:32.047Z,58.18
2016-03-30T11:45:32.128Z,58.28
2016-03-30T11:46:32.053Z,58.28
2016-03-30T11:49:32.576Z,58.56
2016-03-30T11:50:31.704Z,58.56
2016-03-30T11:51:31.691Z,58.47
2016-03-30T11:52:31.693Z,58.37
2016-03-30T11:53:31.884Z,57.99
2016-03-30T11:54:31.715Z,58.28
2016-03-30T11:55:31.702Z,58.18
2016-03-30T11:56:31.690Z,58.18
2016-03-30T11:57:31.692Z,58.18
2016-03-30T11:58:31.694Z,57.9
2016-03-30T11:59:31.713Z,58.09
2016-03-30T12:00:31.700Z,57.61
2016-03-30T12:01:31.718Z,57.99
2016-03-30T12:02:31.720Z,57.8
2016-03-30T12:03:31.708Z,57.8
2016-03-30T12:04:31.695Z,57.8
2016-03-30T12:05:31.714Z,57.9
2016-03-30T12:06:31.700Z,57.8
2016-03-30T12:07:31.718Z,57.99
2016-03-30T12:08:31.705Z,57.7
2016-03-30T12:09:31.713Z,57.32
2016-03-30T12:10:31.699Z,57.13
2016-03-30T12:11:31.702Z,56.94
2016-03-30T12:12:31.704Z,57.42
2016-03-30T12:13:31.707Z,57.48
2016-03-30T12:14:31.694Z,57.48
2016-03-30T12:15:31.713Z,56.82
2016-03-30T12:16:31.715Z,56.65
2016-03-30T12:17:31.717Z,56.82
2016-03-30T12:18:31.720Z,56.72
2016-03-30T12:19:31.724Z,56.15
2016-03-30T12:20:31.711Z,56.15
2016-03-30T12:21:31.729Z,56.15
2016-03-30T12:22:31.716Z,55.96
2016-03-30T12:23:31.703Z,55.96
2016-03-30T12:24:31.706Z,55.96
2016-03-30T12:25:31.709Z,55.69
2016-03-30T12:26:31.711Z,55.57
2016-03-30T12:27:31.713Z,55.12
2016-03-30T12:28:31.716Z,55.31
2016-03-30T12:29:31.719Z,54.36
2016-03-30T12:30:31.706Z,54.07
2016-03-30T12:31:31.725Z,54.16
2016-03-30T12:32:31.727Z,53.4
2016-03-30T12:33:31.730Z,53.59
2016-03-30T12:34:31.717Z,54.07
2016-03-30T12:35:31.719Z,53.3
2016-03-30T12:36:31.722Z,53.4
2016-03-30T12:37:31.724Z,53.2
2016-03-30T12:38:31.713Z,52.63
2016-03-30T12:39:31.715Z,52.83
2016-03-30T12:40:31.718Z,52.92
2016-03-30T12:41:31.720Z,52.73
2016-03-30T12:42:31.723Z,53.11
2016-03-30T12:43:31.726Z,51.97
2016-03-30T12:44:31.728Z,51.48
2016-03-30T12:45:31.731Z,51.1
2016-03-30T12:46:31.733Z,50.81
2016-03-30T12:47:31.720Z,50.91
2016-03-30T12:48:31.723Z,51.1
2016-03-30T12:49:31.726Z,51.1
2016-03-30T12:50:31.729Z,51.1
2016-03-30T12:51:31.731Z,50.62
2016-03-30T12:52:45.925Z,50.43
2016-03-30T12:53:31.737Z,50.34
2016-03-30T12:54:31.739Z,50.05
2016-03-30T12:55:32.398Z,50.15
2016-03-30T12:56:32.917Z,49.95
2016-03-30T12:57:32.856Z,49.76
2016-03-30T12:58:33.313Z,49.19
2016-03-30T12:59:31.737Z,49.5
2016-03-30T13:00:32.286Z,49.21
2016-03-30T13:01:31.742Z,48.93
2016-03-30T13:02:31.902Z,48.93
2016-03-30T13:03:45.938Z,48.25
2016-03-30T13:04:31.735Z,47.78
2016-03-30T13:07:33.383Z,47.39
2016-03-30T13:08:31.824Z,47.13